Accueil
METAR-TAF:

METAR-TAF

Aéroports :

Aérodrome de Londres Biggin Hill

Londres Biggin Hill, Angleterre

latitude: 51-19N, longitude: 000-02E, altitude: 183 m

Observation

Le bulletin a été fait il y a 25 minutes, à 19:50 UTC
Vent 11 kt de sud-ouest, variant entre sud et ouest/sud-ouest
Température 16°C
Humidité 72%
Pression 1015 hPa
Visibilité 10 km ou plus
pas de nuages en-dessous de 1500 mètres et pas de cumulonimbus.

METAR: EGKB 041950Z 22011KT 190V250 CAVOK 16/11 Q1015

Heure: 21:15 (20:15 UTC)

Prévision

Le bulletin a été fait il y a 3 heures et 22 minutes, à 16:53 UTC
Prévision valable du 04 à 18 UTC au 04 à 22 UTC
Vent 12 kt de sud/sud-ouest
Visibilité 10 km ou plus
Quelques nuages à une hauteur de 3500 ft

TAF: EGKB 041653Z 0418/0422 21012KT 9999 FEW035

Observations et prévisions météorologiques de plus de 4000 aéroports (messages METAR et TAF).

Les stations disponibles sont représentées par des disques jaunes et rouges sur la carte.

Passer la souris dessus pour voir le nom de la station.

Cliquer dessus pour voir les observations et prévisions météorologiques.

Pour changer de carte: cliquez sur les boutons verts avec une croix noire pour zoomer, sur le bouton vert avec un tiret pour effectuer un zoom arrière, ou sur les flèches vertes pour les cartes adjacentes.


METAR-TAF: